sensor_id;sensor_type;location;lat;lon;timestamp;pressure;altitude;pressure_sealevel;temperature;humidity
14117;BME280;7137;51.436;6.544;2022-12-07T00:01:46;101323.66;;;6.08;100.00
14117;BME280;7137;51.436;6.544;2022-12-07T00:04:48;101331.47;;;5.94;100.00
14117;BME280;7137;51.436;6.544;2022-12-07T00:07:52;101335.75;;;6.12;100.00
14117;BME280;7137;51.436;6.544;2022-12-07T00:10:53;101334.06;;;5.99;100.00
14117;BME280;7137;51.436;6.544;2022-12-07T00:13:56;101328.03;;;5.93;100.00
14117;BME280;7137;51.436;6.544;2022-12-07T00:16:58;101322.81;;;5.84;100.00
14117;BME280;7137;51.436;6.544;2022-12-07T00:20:01;101322.84;;;5.71;100.00
14117;BME280;7137;51.436;6.544;2022-12-07T00:23:04;101324.56;;;5.72;100.00
14117;BME280;7137;51.436;6.544;2022-12-07T00:26:07;101324.56;;;5.79;100.00
14117;BME280;7137;51.436;6.544;2022-12-07T00:29:13;101320.25;;;5.69;100.00
14117;BME280;7137;51.436;6.544;2022-12-07T00:32:15;101321.97;;;5.79;100.00
14117;BME280;7137;51.436;6.544;2022-12-07T00:35:17;101317.63;;;5.84;100.00
14117;BME280;7137;51.436;6.544;2022-12-07T00:38:20;101304.69;;;5.80;100.00
14117;BME280;7137;51.436;6.544;2022-12-07T00:41:23;101306.44;;;5.72;100.00
14117;BME280;7137;51.436;6.544;2022-12-07T00:44:25;101312.50;;;5.58;100.00
14117;BME280;7137;51.436;6.544;2022-12-07T00:47:27;101310.75;;;5.62;100.00
14117;BME280;7137;51.436;6.544;2022-12-07T00:50:28;101304.69;;;5.71;100.00
14117;BME280;7137;51.436;6.544;2022-12-07T00:53:33;101306.44;;;5.72;100.00
14117;BME280;7137;51.436;6.544;2022-12-07T00:56:35;101300.41;;;5.65;100.00
14117;BME280;7137;51.436;6.544;2022-12-07T00:59:36;101301.25;;;5.70;100.00
14117;BME280;7137;51.436;6.544;2022-12-07T01:02:38;101304.69;;;5.63;100.00
14117;BME280;7137;51.436;6.544;2022-12-07T01:05:40;101307.28;;;5.78;100.00
14117;BME280;7137;51.436;6.544;2022-12-07T01:08:51;101310.72;;;5.97;100.00
14117;BME280;7137;51.436;6.544;2022-12-07T01:11:53;101296.03;;;5.82;100.00
14117;BME280;7137;51.436;6.544;2022-12-07T01:14:54;101295.19;;;5.92;100.00
14117;BME280;7137;51.436;6.544;2022-12-07T01:17:56;101302.06;;;5.84;100.00
14117;BME280;7137;51.436;6.544;2022-12-07T01:21:00;101298.59;;;5.87;100.00
14117;BME280;7137;51.436;6.544;2022-12-07T01:24:05;101306.41;;;5.75;100.00
14117;BME280;7137;51.436;6.544;2022-12-07T01:27:07;101302.06;;;5.87;100.00
14117;BME280;7137;51.436;6.544;2022-12-07T01:30:13;101298.66;;;5.79;100.00
14117;BME280;7137;51.436;6.544;2022-12-07T01:33:15;101301.25;;;5.62;100.00
14117;BME280;7137;51.436;6.544;2022-12-07T01:36:18;101297.84;;;5.44;100.00
14117;BME280;7137;51.436;6.544;2022-12-07T01:39:21;101295.25;;;5.41;100.00
14117;BME280;7137;51.436;6.544;2022-12-07T01:42:23;101294.41;;;5.35;100.00
14117;BME280;7137;51.436;6.544;2022-12-07T01:45:42;101293.53;;;5.26;100.00
14117;BME280;7137;51.436;6.544;2022-12-07T01:48:44;101296.97;;;5.54;100.00
14117;BME280;7137;51.436;6.544;2022-12-07T01:51:46;101300.41;;;5.48;100.00
14117;BME280;7137;51.436;6.544;2022-12-07T01:54:53;101291.78;;;5.64;100.00
14117;BME280;7137;51.436;6.544;2022-12-07T01:57:56;101301.28;;;5.64;100.00
14117;BME280;7137;51.436;6.544;2022-12-07T02:00:58;101305.56;;;5.60;100.00
14117;BME280;7137;51.436;6.544;2022-12-07T02:03:59;101301.28;;;5.52;100.00
14117;BME280;7137;51.436;6.544;2022-12-07T02:07:02;101290.06;;;5.53;100.00
14117;BME280;7137;51.436;6.544;2022-12-07T02:10:19;101285.75;;;5.44;100.00
14117;BME280;7137;51.436;6.544;2022-12-07T02:13:23;101281.41;;;5.58;100.00
14117;BME280;7137;51.436;6.544;2022-12-07T02:16:31;101278.81;;;5.55;100.00
14117;BME280;7137;51.436;6.544;2022-12-07T02:20:00;101287.47;;;5.30;100.00
14117;BME280;7137;51.436;6.544;2022-12-07T02:23:30;101291.81;;;5.22;100.00
14117;BME280;7137;51.436;6.544;2022-12-07T02:30:22;101288.34;;;5.12;100.00
14117;BME280;7137;51.436;6.544;2022-12-07T02:33:28;101287.47;;;5.16;100.00
14117;BME280;7137;51.436;6.544;2022-12-07T02:36:36;101287.47;;;5.19;100.00
14117;BME280;7137;51.436;6.544;2022-12-07T02:39:43;101294.38;;;5.05;100.00
14117;BME280;7137;51.436;6.544;2022-12-07T02:42:49;101290.06;;;5.16;100.00
14117;BME280;7137;51.436;6.544;2022-12-07T02:45:55;101291.78;;;5.00;100.00
14117;BME280;7137;51.436;6.544;2022-12-07T02:48:58;101295.25;;;4.99;100.00
14117;BME280;7137;51.436;6.544;2022-12-07T02:52:00;101288.31;;;4.91;100.00
14117;BME280;7137;51.436;6.544;2022-12-07T02:55:02;101288.31;;;4.89;100.00
14117;BME280;7137;51.436;6.544;2022-12-07T02:58:20;101291.78;;;4.85;100.00
14117;BME280;7137;51.436;6.544;2022-12-07T03:01:30;101295.25;;;4.84;100.00
14117;BME280;7137;51.436;6.544;2022-12-07T03:04:42;101295.22;;;4.73;100.00
14117;BME280;7137;51.436;6.544;2022-12-07T03:07:52;101288.31;;;4.72;100.00
14117;BME280;7137;51.436;6.544;2022-12-07T03:10:58;101291.81;;;4.99;100.00
14117;BME280;7137;51.436;6.544;2022-12-07T03:14:04;101280.56;;;4.92;100.00
14117;BME280;7137;51.436;6.544;2022-12-07T03:17:14;101284.03;;;4.88;100.00
14117;BME280;7137;51.436;6.544;2022-12-07T03:20:20;101285.72;;;4.72;100.00
14117;BME280;7137;51.436;6.544;2022-12-07T03:23:23;101286.63;;;4.81;100.00
14117;BME280;7137;51.436;6.544;2022-12-07T03:26:32;101286.53;;;4.48;100.00
14117;BME280;7137;51.436;6.544;2022-12-07T03:29:40;101285.66;;;4.48;100.00
14117;BME280;7137;51.436;6.544;2022-12-07T03:32:45;101293.41;;;4.43;100.00
14117;BME280;7137;51.436;6.544;2022-12-07T03:35:58;101290.84;;;4.48;100.00
14117;BME280;7137;51.436;6.544;2022-12-07T03:39:07;101284.81;;;4.46;100.00
14117;BME280;7137;51.436;6.544;2022-12-07T03:42:13;101283.97;;;4.53;100.00
14117;BME280;7137;51.436;6.544;2022-12-07T03:45:16;101279.66;;;4.54;100.00
14117;BME280;7137;51.436;6.544;2022-12-07T03:48:23;101275.34;;;4.60;100.00
14117;BME280;7137;51.436;6.544;2022-12-07T03:51:32;101277.94;;;4.56;100.00
14117;BME280;7137;51.436;6.544;2022-12-07T03:54:39;101284.03;;;4.81;100.00
14117;BME280;7137;51.436;6.544;2022-12-07T03:57:44;101285.75;;;4.85;100.00
14117;BME280;7137;51.436;6.544;2022-12-07T04:00:48;101287.41;;;4.63;100.00
14117;BME280;7137;51.436;6.544;2022-12-07T04:03:52;101295.22;;;4.72;100.00
14117;BME280;7137;51.436;6.544;2022-12-07T04:06:54;101290.00;;;4.60;100.00
14117;BME280;7137;51.436;6.544;2022-12-07T04:09:56;101286.56;;;4.55;100.00
14117;BME280;7137;51.436;6.544;2022-12-07T04:12:58;101277.94;;;4.54;100.00
14117;BME280;7137;51.436;6.544;2022-12-07T04:16:00;101273.63;;;4.59;100.00
14117;BME280;7137;51.436;6.544;2022-12-07T04:19:02;101277.94;;;4.63;100.00
14117;BME280;7137;51.436;6.544;2022-12-07T04:22:04;101272.75;;;4.57;100.00
14117;BME280;7137;51.436;6.544;2022-12-07T04:25:06;101275.34;;;4.60;100.00
14117;BME280;7137;51.436;6.544;2022-12-07T04:28:08;101281.38;;;4.53;100.00
14117;BME280;7137;51.436;6.544;2022-12-07T04:31:10;101278.75;;;4.44;100.00
14117;BME280;7137;51.436;6.544;2022-12-07T04:34:13;101278.75;;;4.44;100.00
14117;BME280;7137;51.436;6.544;2022-12-07T04:37:15;101275.28;;;4.27;100.00
14117;BME280;7137;51.436;6.544;2022-12-07T04:40:17;101277.06;;;4.51;100.00
14117;BME280;7137;51.436;6.544;2022-12-07T04:43:19;101270.16;;;4.43;100.00
14117;BME280;7137;51.436;6.544;2022-12-07T04:46:21;101275.28;;;4.30;100.00
14117;BME280;7137;51.436;6.544;2022-12-07T04:49:24;101273.50;;;4.20;100.00
14117;BME280;7137;51.436;6.544;2022-12-07T04:52:26;101277.84;;;4.28;100.00
14117;BME280;7137;51.436;6.544;2022-12-07T04:55:27;101268.41;;;4.41;100.00
14117;BME280;7137;51.436;6.544;2022-12-07T04:58:29;101276.19;;;4.42;100.00
14117;BME280;7137;51.436;6.544;2022-12-07T05:01:31;101271.88;;;4.47;100.00
14117;BME280;7137;51.436;6.544;2022-12-07T05:04:34;101266.75;;;4.73;100.00
14117;BME280;7137;51.436;6.544;2022-12-07T05:07:35;101271.91;;;4.76;100.00
14117;BME280;7137;51.436;6.544;2022-12-07T05:10:37;101271.09;;;4.85;100.00
14117;BME280;7137;51.436;6.544;2022-12-07T05:13:39;101268.50;;;4.79;100.00
14117;BME280;7137;51.436;6.544;2022-12-07T05:16:40;101267.66;;;4.94;100.00
14117;BME280;7137;51.436;6.544;2022-12-07T05:19:44;101269.38;;;4.99;100.00
14117;BME280;7137;51.436;6.544;2022-12-07T05:22:45;101271.06;;;5.05;100.00
14117;BME280;7137;51.436;6.544;2022-12-07T05:25:47;101273.66;;;4.82;100.00
14117;BME280;7137;51.436;6.544;2022-12-07T05:28:50;101261.59;;;4.80;100.00
14117;BME280;7137;51.436;6.544;2022-12-07T05:31:52;101268.47;;;4.91;100.00
14117;BME280;7137;51.436;6.544;2022-12-07T05:34:55;101264.19;;;4.84;100.00
14117;BME280;7137;51.436;6.544;2022-12-07T05:37:57;101258.13;;;5.20;100.00
14117;BME280;7137;51.436;6.544;2022-12-07T05:41:00;101259.88;;;5.27;99.68
14117;BME280;7137;51.436;6.544;2022-12-07T05:44:02;101269.34;;;5.19;100.00
14117;BME280;7137;51.436;6.544;2022-12-07T05:47:04;101270.22;;;5.11;99.91
14117;BME280;7137;51.436;6.544;2022-12-07T05:50:08;101266.75;;;4.86;100.00
14117;BME280;7137;51.436;6.544;2022-12-07T05:53:09;101272.81;;;4.86;100.00
14117;BME280;7137;51.436;6.544;2022-12-07T05:56:11;101265.03;;;4.72;100.00
14117;BME280;7137;51.436;6.544;2022-12-07T05:59:13;101264.16;;;4.90;100.00
14117;BME280;7137;51.436;6.544;2022-12-07T06:02:27;101261.56;;;4.73;100.00
14117;BME280;7137;51.436;6.544;2022-12-07T06:05:31;101267.63;;;4.88;100.00
14117;BME280;7137;51.436;6.544;2022-12-07T06:08:37;101265.91;;;4.81;100.00
14117;BME280;7137;51.436;6.544;2022-12-07T06:11:39;101272.81;;;4.86;100.00
14117;BME280;7137;51.436;6.544;2022-12-07T06:14:58;101260.72;;;4.70;100.00
14117;BME280;7137;51.436;6.544;2022-12-07T06:17:59;101253.78;;;4.54;100.00
14117;BME280;7137;51.436;6.544;2022-12-07T06:21:02;101253.75;;;4.40;100.00
14117;BME280;7137;51.436;6.544;2022-12-07T06:24:05;101257.25;;;4.57;100.00
14117;BME280;7137;51.436;6.544;2022-12-07T06:27:07;101263.31;;;4.85;100.00
14117;BME280;7137;51.436;6.544;2022-12-07T06:30:09;101268.47;;;4.67;100.00
14117;BME280;7137;51.436;6.544;2022-12-07T06:33:11;101265.06;;;4.79;100.00
14117;BME280;7137;51.436;6.544;2022-12-07T06:36:14;101269.38;;;4.95;100.00
14117;BME280;7137;51.436;6.544;2022-12-07T06:39:15;101273.66;;;4.70;100.00
14117;BME280;7137;51.436;6.544;2022-12-07T06:42:17;101267.63;;;4.69;100.00
14117;BME280;7137;51.436;6.544;2022-12-07T06:45:19;101267.63;;;4.85;100.00
14117;BME280;7137;51.436;6.544;2022-12-07T06:48:20;101266.78;;;4.80;100.00
14117;BME280;7137;51.436;6.544;2022-12-07T06:51:24;101271.06;;;4.71;100.00
14117;BME280;7137;51.436;6.544;2022-12-07T06:54:26;101273.66;;;4.67;100.00
14117;BME280;7137;51.436;6.544;2022-12-07T06:57:30;101270.19;;;4.68;100.00
14117;BME280;7137;51.436;6.544;2022-12-07T07:00:32;101264.09;;;4.49;100.00
14117;BME280;7137;51.436;6.544;2022-12-07T07:03:34;101266.72;;;4.52;100.00
14117;BME280;7137;51.436;6.544;2022-12-07T07:06:37;101266.72;;;4.55;100.00
14117;BME280;7137;51.436;6.544;2022-12-07T07:09:43;101275.41;;;4.79;98.60
14117;BME280;7137;51.436;6.544;2022-12-07T07:12:45;101277.09;;;4.66;99.04
14117;BME280;7137;51.436;6.544;2022-12-07T07:15:47;101273.63;;;4.64;98.88
14117;BME280;7137;51.436;6.544;2022-12-07T07:18:48;101272.75;;;4.54;100.00
14117;BME280;7137;51.436;6.544;2022-12-07T07:21:52;101276.13;;;4.26;100.00
14117;BME280;7137;51.436;6.544;2022-12-07T07:25:08;101272.69;;;4.36;100.00
14117;BME280;7137;51.436;6.544;2022-12-07T07:28:11;101286.47;;;4.32;100.00
14117;BME280;7137;51.436;6.544;2022-12-07T07:31:13;101286.53;;;4.38;100.00
14117;BME280;7137;51.436;6.544;2022-12-07T07:34:15;101278.72;;;4.26;100.00
14117;BME280;7137;51.436;6.544;2022-12-07T07:37:18;101293.38;;;4.33;100.00
14117;BME280;7137;51.436;6.544;2022-12-07T07:40:20;101289.94;;;4.29;100.00
14117;BME280;7137;51.436;6.544;2022-12-07T07:43:22;101283.78;;;3.95;100.00
14117;BME280;7137;51.436;6.544;2022-12-07T07:46:24;101284.56;;;3.85;100.00
14117;BME280;7137;51.436;6.544;2022-12-07T07:49:26;101288.88;;;3.83;100.00
14117;BME280;7137;51.436;6.544;2022-12-07T07:52:29;101291.44;;;3.83;100.00
14117;BME280;7137;51.436;6.544;2022-12-07T07:55:33;101294.00;;;3.78;100.00
14117;BME280;7137;51.436;6.544;2022-12-07T07:58:34;101290.44;;;3.60;100.00
14117;BME280;7137;51.436;6.544;2022-12-07T08:01:36;101287.03;;;3.65;100.00
14117;BME280;7137;51.436;6.544;2022-12-07T08:04:37;101293.97;;;3.74;100.00
14117;BME280;7137;51.436;6.544;2022-12-07T08:07:40;101291.41;;;3.78;100.00
14117;BME280;7137;51.436;6.544;2022-12-07T08:10:42;101292.41;;;4.08;100.00
14117;BME280;7137;51.436;6.544;2022-12-07T08:13:45;101301.19;;;4.46;100.00
14117;BME280;7137;51.436;6.544;2022-12-07T08:16:47;101298.59;;;4.43;100.00
14117;BME280;7137;51.436;6.544;2022-12-07T08:19:51;101302.03;;;4.44;100.00
14117;BME280;7137;51.436;6.544;2022-12-07T08:22:54;101299.44;;;4.42;100.00
14117;BME280;7137;51.436;6.544;2022-12-07T08:26:00;101303.78;;;4.48;100.00
14117;BME280;7137;51.436;6.544;2022-12-07T08:29:02;101303.72;;;4.24;100.00
14117;BME280;7137;51.436;6.544;2022-12-07T08:32:04;101300.25;;;4.26;100.00
14117;BME280;7137;51.436;6.544;2022-12-07T08:35:06;101305.59;;;4.86;100.00
14117;BME280;7137;51.436;6.544;2022-12-07T08:38:09;101308.19;;;5.04;100.00
14117;BME280;7137;51.436;6.544;2022-12-07T08:41:11;101311.66;;;4.95;100.00
14117;BME280;7137;51.436;6.544;2022-12-07T08:44:13;101311.63;;;5.06;100.00
14117;BME280;7137;51.436;6.544;2022-12-07T08:47:14;101307.34;;;5.11;100.00
14117;BME280;7137;51.436;6.544;2022-12-07T08:50:16;101309.06;;;5.09;100.00
14117;BME280;7137;51.436;6.544;2022-12-07T08:53:20;101303.00;;;4.89;100.00
14117;BME280;7137;51.436;6.544;2022-12-07T08:56:23;101297.84;;;4.93;100.00
14117;BME280;7137;51.436;6.544;2022-12-07T08:59:26;101297.81;;;4.92;100.00
14117;BME280;7137;51.436;6.544;2022-12-07T09:02:30;101296.97;;;5.28;100.00
14117;BME280;7137;51.436;6.544;2022-12-07T09:05:32;101303.88;;;5.38;100.00
14117;BME280;7137;51.436;6.544;2022-12-07T09:08:38;101304.66;;;5.89;99.55
14117;BME280;7137;51.436;6.544;2022-12-07T09:11:41;101306.09;;;6.60;98.73
14117;BME280;7137;51.436;6.544;2022-12-07T09:14:45;101303.56;;;6.54;96.60
14117;BME280;7137;51.436;6.544;2022-12-07T09:17:46;101304.47;;;6.42;95.61
14117;BME280;7137;51.436;6.544;2022-12-07T09:20:48;101297.63;;;6.28;95.94
14117;BME280;7137;51.436;6.544;2022-12-07T09:23:51;101306.38;;;6.08;95.29
14117;BME280;7137;51.436;6.544;2022-12-07T09:26:53;101306.34;;;6.14;95.39
14117;BME280;7137;51.436;6.544;2022-12-07T09:29:55;101316.72;;;6.14;94.24
14117;BME280;7137;51.436;6.544;2022-12-07T09:32:57;101306.19;;;6.45;96.40
14117;BME280;7137;51.436;6.544;2022-12-07T09:35:58;101311.28;;;7.75;91.60
14117;BME280;7137;51.436;6.544;2022-12-07T09:39:02;101312.03;;;8.58;84.88
14117;BME280;7137;51.436;6.544;2022-12-07T09:42:05;101318.75;;;9.32;80.60
14117;BME280;7137;51.436;6.544;2022-12-07T09:45:14;101312.84;;;9.73;79.36
14117;BME280;7137;51.436;6.544;2022-12-07T09:48:18;101323.31;;;9.19;79.42
14117;BME280;7137;51.436;6.544;2022-12-07T09:51:22;101303.53;;;9.06;78.89
14117;BME280;7137;51.436;6.544;2022-12-07T09:54:28;101305.31;;;7.65;82.87
14117;BME280;7137;51.436;6.544;2022-12-07T09:57:32;101303.25;;;7.95;84.09
14117;BME280;7137;51.436;6.544;2022-12-07T10:00:34;101307.16;;;8.29;84.55
14117;BME280;7137;51.436;6.544;2022-12-07T10:03:37;101293.38;;;8.24;83.80
14117;BME280;7137;51.436;6.544;2022-12-07T10:06:41;101302.06;;;8.23;83.63
14117;BME280;7137;51.436;6.544;2022-12-07T10:09:44;101296.75;;;8.29;83.65
14117;BME280;7137;51.436;6.544;2022-12-07T10:12:57;101297.22;;;7.93;82.95
14117;BME280;7137;51.436;6.544;2022-12-07T10:15:59;101295.72;;;7.70;85.07
14117;BME280;7137;51.436;6.544;2022-12-07T10:19:18;101290.78;;;7.43;86.16
14117;BME280;7137;51.436;6.544;2022-12-07T10:22:20;101289.09;;;7.37;88.08
14117;BME280;7137;51.436;6.544;2022-12-07T10:25:27;101279.47;;;7.49;87.43
14117;BME280;7137;51.436;6.544;2022-12-07T10:28:34;101283.78;;;7.51;86.37
14117;BME280;7137;51.436;6.544;2022-12-07T10:31:38;101281.28;;;7.40;86.16
14117;BME280;7137;51.436;6.544;2022-12-07T10:34:41;101286.94;;;6.84;87.76
14117;BME280;7137;51.436;6.544;2022-12-07T10:37:42;101291.00;;;7.17;89.58
14117;BME280;7137;51.436;6.544;2022-12-07T10:40:47;101285.16;;;6.91;88.91
14117;BME280;7137;51.436;6.544;2022-12-07T10:43:53;101276.41;;;7.01;88.89
14117;BME280;7137;51.436;6.544;2022-12-07T10:47:18;101276.19;;;7.28;88.14
14117;BME280;7137;51.436;6.544;2022-12-07T10:53:53;101255.78;;;6.82;89.54
14117;BME280;7137;51.436;6.544;2022-12-07T10:57:15;101259.19;;;6.94;88.74
14117;BME280;7137;51.436;6.544;2022-12-07T11:00:22;101248.41;;;7.36;88.27
14117;BME280;7137;51.436;6.544;2022-12-07T11:03:44;101249.38;;;8.06;86.95
14117;BME280;7137;51.436;6.544;2022-12-07T11:06:54;101243.78;;;8.38;83.05
14117;BME280;7137;51.436;6.544;2022-12-07T11:10:06;101240.09;;;7.84;83.98
14117;BME280;7137;51.436;6.544;2022-12-07T11:13:25;101235.03;;;7.70;84.43
14117;BME280;7137;51.436;6.544;2022-12-07T11:16:37;101232.38;;;7.78;85.17
14117;BME280;7137;51.436;6.544;2022-12-07T11:20:00;101237.31;;;7.97;84.24
14117;BME280;7137;51.436;6.544;2022-12-07T11:23:13;101240.13;;;7.81;84.46
14117;BME280;7137;51.436;6.544;2022-12-07T11:26:24;101230.38;;;7.20;86.56
14117;BME280;7137;51.436;6.544;2022-12-07T11:29:44;101221.47;;;7.47;87.98
14117;BME280;7137;51.436;6.544;2022-12-07T11:32:59;101217.78;;;7.64;87.26
14117;BME280;7137;51.436;6.544;2022-12-07T11:36:09;101217.53;;;7.84;86.29
14117;BME280;7137;51.436;6.544;2022-12-07T11:39:19;101215.47;;;8.11;85.31
14117;BME280;7137;51.436;6.544;2022-12-07T11:42:26;101215.91;;;8.46;85.49
14117;BME280;7137;51.436;6.544;2022-12-07T11:45:32;101212.25;;;7.93;83.06
14117;BME280;7137;51.436;6.544;2022-12-07T11:48:38;101214.59;;;8.12;83.00
14117;BME280;7137;51.436;6.544;2022-12-07T11:51:40;101205.22;;;7.98;84.18
14117;BME280;7137;51.436;6.544;2022-12-07T11:54:46;101200.00;;;8.03;84.18
14117;BME280;7137;51.436;6.544;2022-12-07T11:57:53;101201.63;;;8.09;83.28
14117;BME280;7137;51.436;6.544;2022-12-07T12:01:08;101204.03;;;7.53;85.70
14117;BME280;7137;51.436;6.544;2022-12-07T12:04:23;101200.63;;;7.50;86.96
14117;BME280;7137;51.436;6.544;2022-12-07T12:07:28;101202.31;;;7.52;86.08
14117;BME280;7137;51.436;6.544;2022-12-07T12:10:39;101209.69;;;7.90;86.86
14117;BME280;7137;51.436;6.544;2022-12-07T12:14:00;101202.44;;;8.12;84.22
14117;BME280;7137;51.436;6.544;2022-12-07T12:17:38;101198.91;;;8.19;82.91
14117;BME280;7137;51.436;6.544;2022-12-07T12:20:45;101201.72;;;8.01;84.03
14117;BME280;7137;51.436;6.544;2022-12-07T12:23:51;101190.63;;;7.90;84.13
14117;BME280;7137;51.436;6.544;2022-12-07T12:27:01;101188.84;;;7.92;84.08
14117;BME280;7137;51.436;6.544;2022-12-07T12:30:07;101179.97;;;8.08;84.67
14117;BME280;7137;51.436;6.544;2022-12-07T12:33:28;101181.78;;;8.01;84.14
14117;BME280;7137;51.436;6.544;2022-12-07T12:36:45;101176.25;;;8.24;85.74
14117;BME280;7137;51.436;6.544;2022-12-07T12:43:45;101166.94;;;8.68;82.29
14117;BME280;7137;51.436;6.544;2022-12-07T12:46:51;101164.94;;;8.27;81.63
14117;BME280;7137;51.436;6.544;2022-12-07T12:50:20;101164.91;;;8.28;83.47
14117;BME280;7137;51.436;6.544;2022-12-07T12:53:23;101165.63;;;8.41;83.43
14117;BME280;7137;51.436;6.544;2022-12-07T12:56:36;101164.03;;;8.29;83.46
14117;BME280;7137;51.436;6.544;2022-12-07T12:59:42;101156.56;;;8.07;83.13
14117;BME280;7137;51.436;6.544;2022-12-07T13:02:59;101152.94;;;8.18;83.19
14117;BME280;7137;51.436;6.544;2022-12-07T13:06:20;101150.13;;;8.32;83.43
14117;BME280;7137;51.436;6.544;2022-12-07T13:09:35;101155.34;;;8.32;80.91
14117;BME280;7137;51.436;6.544;2022-12-07T13:12:56;101149.50;;;8.15;81.92
14117;BME280;7137;51.436;6.544;2022-12-07T13:16:38;101149.13;;;7.81;82.80
14117;BME280;7137;51.436;6.544;2022-12-07T13:20:00;101140.63;;;7.66;83.31
14117;BME280;7137;51.436;6.544;2022-12-07T13:23:06;101141.81;;;8.07;82.62
14117;BME280;7137;51.436;6.544;2022-12-07T13:26:19;101140.22;;;7.97;81.79
14117;BME280;7137;51.436;6.544;2022-12-07T13:29:21;101138.34;;;8.08;82.52
14117;BME280;7137;51.436;6.544;2022-12-07T13:32:25;101135.00;;;7.98;81.98
14117;BME280;7137;51.436;6.544;2022-12-07T13:35:29;101129.78;;;8.00;83.00
14117;BME280;7137;51.436;6.544;2022-12-07T13:38:34;101129.81;;;7.97;82.32
14117;BME280;7137;51.436;6.544;2022-12-07T13:41:41;101119.94;;;7.57;82.59
14117;BME280;7137;51.436;6.544;2022-12-07T13:44:43;101114.03;;;7.48;83.46
14117;BME280;7137;51.436;6.544;2022-12-07T13:47:51;101109.81;;;7.36;84.62
14117;BME280;7137;51.436;6.544;2022-12-07T13:50:56;101107.19;;;7.37;83.56
14117;BME280;7137;51.436;6.544;2022-12-07T13:54:08;101102.56;;;7.62;84.31
14117;BME280;7137;51.436;6.544;2022-12-07T13:57:10;101101.84;;;7.51;84.45
14117;BME280;7137;51.436;6.544;2022-12-07T14:00:16;101098.44;;;7.48;83.38
14117;BME280;7137;51.436;6.544;2022-12-07T14:03:28;101093.31;;;7.40;84.07
14117;BME280;7137;51.436;6.544;2022-12-07T14:06:30;101090.72;;;7.40;84.92
14117;BME280;7137;51.436;6.544;2022-12-07T14:09:33;101096.13;;;7.23;85.73
14117;BME280;7137;51.436;6.544;2022-12-07T14:12:36;101077.97;;;7.17;85.29
14117;BME280;7137;51.436;6.544;2022-12-07T14:15:37;101085.03;;;7.09;85.31
14117;BME280;7137;51.436;6.544;2022-12-07T14:18:40;101080.66;;;7.11;86.44
14117;BME280;7137;51.436;6.544;2022-12-07T14:21:42;101078.25;;;6.96;87.51
14117;BME280;7137;51.436;6.544;2022-12-07T14:24:44;101079.03;;;7.01;87.00
14117;BME280;7137;51.436;6.544;2022-12-07T14:27:52;101066.16;;;6.93;88.35
14117;BME280;7137;51.436;6.544;2022-12-07T14:30:56;101066.06;;;6.99;88.21
14117;BME280;7137;51.436;6.544;2022-12-07T14:33:59;101061.41;;;7.27;86.53
14117;BME280;7137;51.436;6.544;2022-12-07T14:37:00;101063.09;;;7.33;86.14
14117;BME280;7137;51.436;6.544;2022-12-07T14:40:05;101060.44;;;7.36;84.98
14117;BME280;7137;51.436;6.544;2022-12-07T14:43:11;101049.56;;;7.03;87.07
14117;BME280;7137;51.436;6.544;2022-12-07T14:46:14;101052.34;;;6.88;88.20
14117;BME280;7137;51.436;6.544;2022-12-07T14:49:16;101049.88;;;6.79;87.44
14117;BME280;7137;51.436;6.544;2022-12-07T14:52:21;101045.56;;;6.76;87.57
14117;BME280;7137;51.436;6.544;2022-12-07T14:55:28;101041.28;;;6.71;88.27
14117;BME280;7137;51.436;6.544;2022-12-07T14:58:29;101051.69;;;6.68;88.37
14117;BME280;7137;51.436;6.544;2022-12-07T15:01:31;101048.25;;;6.67;88.25
14117;BME280;7137;51.436;6.544;2022-12-07T15:04:33;101052.50;;;6.76;87.28
14117;BME280;7137;51.436;6.544;2022-12-07T15:07:34;101051.44;;;6.92;85.56
14117;BME280;7137;51.436;6.544;2022-12-07T15:10:37;101053.34;;;6.75;85.81
14117;BME280;7137;51.436;6.544;2022-12-07T15:13:40;101049.06;;;6.71;86.05
14117;BME280;7137;51.436;6.544;2022-12-07T15:16:59;101048.25;;;6.66;86.85
14117;BME280;7137;51.436;6.544;2022-12-07T15:20:00;101040.47;;;6.67;86.49
14117;BME280;7137;51.436;6.544;2022-12-07T15:23:02;101036.41;;;6.39;88.96
14117;BME280;7137;51.436;6.544;2022-12-07T15:26:05;101038.06;;;6.44;88.91
14117;BME280;7137;51.436;6.544;2022-12-07T15:29:08;101042.41;;;6.44;88.63
14117;BME280;7137;51.436;6.544;2022-12-07T15:32:12;101040.66;;;6.49;88.10
14117;BME280;7137;51.436;6.544;2022-12-07T15:35:14;101052.72;;;6.53;87.51
14117;BME280;7137;51.436;6.544;2022-12-07T15:38:15;101046.56;;;6.63;87.46
14117;BME280;7137;51.436;6.544;2022-12-07T15:41:18;101043.91;;;6.68;85.34
14117;BME280;7137;51.436;6.544;2022-12-07T15:44:20;101037.19;;;6.50;84.97
14117;BME280;7137;51.436;6.544;2022-12-07T15:47:41;101046.09;;;6.18;86.33
14117;BME280;7137;51.436;6.544;2022-12-07T15:50:43;101043.38;;;6.34;86.50
14117;BME280;7137;51.436;6.544;2022-12-07T15:53:44;101038.31;;;6.21;86.96
14117;BME280;7137;51.436;6.544;2022-12-07T15:56:51;101032.19;;;6.27;86.60
14117;BME280;7137;51.436;6.544;2022-12-07T15:59:54;101035.56;;;6.37;85.96
14117;BME280;7137;51.436;6.544;2022-12-07T16:02:55;101029.53;;;6.35;86.57
14117;BME280;7137;51.436;6.544;2022-12-07T16:05:57;101026.84;;;6.44;85.38
14117;BME280;7137;51.436;6.544;2022-12-07T16:08:58;101035.31;;;6.64;85.86
14117;BME280;7137;51.436;6.544;2022-12-07T16:12:01;101027.69;;;6.46;87.50
14117;BME280;7137;51.436;6.544;2022-12-07T16:15:04;101026.81;;;6.48;87.51
14117;BME280;7137;51.436;6.544;2022-12-07T16:18:06;101025.03;;;6.53;87.51
14117;BME280;7137;51.436;6.544;2022-12-07T16:21:07;101019.63;;;6.72;85.68
14117;BME280;7137;51.436;6.544;2022-12-07T16:24:09;101015.25;;;6.80;84.77
14117;BME280;7137;51.436;6.544;2022-12-07T16:27:16;101016.16;;;6.73;85.02
14117;BME280;7137;51.436;6.544;2022-12-07T16:30:20;101014.50;;;6.69;86.52
14117;BME280;7137;51.436;6.544;2022-12-07T16:33:22;101018.78;;;6.71;87.91
14117;BME280;7137;51.436;6.544;2022-12-07T16:36:38;101024.00;;;6.68;86.86
14117;BME280;7137;51.436;6.544;2022-12-07T16:39:39;101020.44;;;6.78;86.13